sensor_id;sensor_type;location;lat;lon;timestamp;pressure;altitude;pressure_sealevel;temperature;humidity
48156;BME280;35568;48.104;11.782;2023-04-19T00:01:40;95801.59;;;10.85;51.51
48156;BME280;35568;48.104;11.782;2023-04-19T00:04:07;95799.34;;;10.83;51.89
48156;BME280;35568;48.104;11.782;2023-04-19T00:06:34;95796.78;;;10.88;51.44
48156;BME280;35568;48.104;11.782;2023-04-19T00:09:00;95796.86;;;10.76;51.70
48156;BME280;35568;48.104;11.782;2023-04-19T00:11:27;95795.94;;;10.46;51.30
48156;BME280;35568;48.104;11.782;2023-04-19T00:13:54;95794.51;;;10.07;52.06
48156;BME280;35568;48.104;11.782;2023-04-19T00:16:20;95790.61;;;10.53;51.76
48156;BME280;35568;48.104;11.782;2023-04-19T00:18:47;95791.72;;;10.63;52.29
48156;BME280;35568;48.104;11.782;2023-04-19T00:21:14;95788.45;;;10.42;51.91
48156;BME280;35568;48.104;11.782;2023-04-19T00:23:41;95787.94;;;10.54;51.95
48156;BME280;35568;48.104;11.782;2023-04-19T00:26:07;95786.60;;;10.73;51.53
48156;BME280;35568;48.104;11.782;2023-04-19T00:28:35;95785.51;;;10.62;51.92
48156;BME280;35568;48.104;11.782;2023-04-19T00:31:01;95783.60;;;10.69;51.43
48156;BME280;35568;48.104;11.782;2023-04-19T00:33:28;95780.82;;;10.41;51.35
48156;BME280;35568;48.104;11.782;2023-04-19T00:35:55;95780.25;;;10.36;51.46
48156;BME280;35568;48.104;11.782;2023-04-19T00:38:22;95778.15;;;10.68;51.42
48156;BME280;35568;48.104;11.782;2023-04-19T00:40:49;95773.35;;;10.55;51.73
48156;BME280;35568;48.104;11.782;2023-04-19T00:43:17;95772.96;;;10.77;51.35
48156;BME280;35568;48.104;11.782;2023-04-19T00:45:44;95771.71;;;10.59;51.70
48156;BME280;35568;48.104;11.782;2023-04-19T00:48:12;95768.52;;;10.64;51.19
48156;BME280;35568;48.104;11.782;2023-04-19T00:50:40;95763.65;;;10.76;51.33
48156;BME280;35568;48.104;11.782;2023-04-19T00:53:08;95762.45;;;10.71;51.31
48156;BME280;35568;48.104;11.782;2023-04-19T00:55:35;95763.70;;;10.64;51.26
48156;BME280;35568;48.104;11.782;2023-04-19T00:58:05;95764.02;;;10.35;51.84
48156;BME280;35568;48.104;11.782;2023-04-19T01:00:32;95764.52;;;10.53;51.41
48156;BME280;35568;48.104;11.782;2023-04-19T01:02:58;95763.58;;;10.53;51.86
48156;BME280;35568;48.104;11.782;2023-04-19T01:05:25;95764.08;;;10.54;51.35
48156;BME280;35568;48.104;11.782;2023-04-19T01:07:52;95761.45;;;10.49;51.45
48156;BME280;35568;48.104;11.782;2023-04-19T01:10:20;95765.92;;;10.02;51.71
48156;BME280;35568;48.104;11.782;2023-04-19T01:12:47;95768.22;;;10.10;52.35
48156;BME280;35568;48.104;11.782;2023-04-19T01:15:13;95764.65;;;10.16;52.24
48156;BME280;35568;48.104;11.782;2023-04-19T01:17:40;95762.36;;;10.22;52.31
48156;BME280;35568;48.104;11.782;2023-04-19T01:20:08;95758.79;;;10.13;52.00
48156;BME280;35568;48.104;11.782;2023-04-19T01:22:35;95752.08;;;10.29;51.93
48156;BME280;35568;48.104;11.782;2023-04-19T01:25:02;95747.70;;;10.38;51.93
48156;BME280;35568;48.104;11.782;2023-04-19T01:27:30;95742.72;;;10.27;51.94
48156;BME280;35568;48.104;11.782;2023-04-19T01:29:56;95739.98;;;10.42;52.01
48156;BME280;35568;48.104;11.782;2023-04-19T01:32:23;95739.19;;;9.99;52.03
48156;BME280;35568;48.104;11.782;2023-04-19T01:34:51;95736.08;;;10.09;52.66
48156;BME280;35568;48.104;11.782;2023-04-19T01:37:18;95738.40;;;10.39;52.35
48156;BME280;35568;48.104;11.782;2023-04-19T01:39:45;95733.99;;;10.13;52.44
48156;BME280;35568;48.104;11.782;2023-04-19T01:42:12;95732.54;;;10.15;52.60
48156;BME280;35568;48.104;11.782;2023-04-19T01:44:39;95729.02;;;10.20;52.46
48156;BME280;35568;48.104;11.782;2023-04-19T01:47:05;95731.34;;;10.22;52.69
48156;BME280;35568;48.104;11.782;2023-04-19T01:49:32;95726.26;;;10.19;52.80
48156;BME280;35568;48.104;11.782;2023-04-19T01:51:59;95724.92;;;9.94;52.96
48156;BME280;35568;48.104;11.782;2023-04-19T01:54:26;95721.57;;;10.22;52.52
48156;BME280;35568;48.104;11.782;2023-04-19T01:56:53;95719.90;;;10.35;52.58
48156;BME280;35568;48.104;11.782;2023-04-19T01:59:19;95717.31;;;10.33;52.78
48156;BME280;35568;48.104;11.782;2023-04-19T02:01:46;95718.86;;;9.96;52.76
48156;BME280;35568;48.104;11.782;2023-04-19T02:04:14;95717.77;;;10.22;52.91
48156;BME280;35568;48.104;11.782;2023-04-19T02:06:40;95718.19;;;10.18;53.00
48156;BME280;35568;48.104;11.782;2023-04-19T02:09:07;95717.81;;;10.34;53.04
48156;BME280;35568;48.104;11.782;2023-04-19T02:11:33;95715.45;;;10.03;53.52
48156;BME280;35568;48.104;11.782;2023-04-19T02:14:00;95711.37;;;9.92;53.36
48156;BME280;35568;48.104;11.782;2023-04-19T02:16:28;95707.51;;;10.30;53.27
48156;BME280;35568;48.104;11.782;2023-04-19T02:18:55;95706.00;;;10.49;53.20
48156;BME280;35568;48.104;11.782;2023-04-19T02:21:22;95703.73;;;10.13;53.13
48156;BME280;35568;48.104;11.782;2023-04-19T02:23:48;95702.00;;;10.17;53.35
48156;BME280;35568;48.104;11.782;2023-04-19T02:26:15;95699.64;;;10.20;53.31
48156;BME280;35568;48.104;11.782;2023-04-19T02:28:42;95698.76;;;10.13;53.26
48156;BME280;35568;48.104;11.782;2023-04-19T02:31:10;95693.70;;;9.97;53.38
48156;BME280;35568;48.104;11.782;2023-04-19T02:33:37;95694.17;;;10.30;53.54
48156;BME280;35568;48.104;11.782;2023-04-19T02:36:04;95693.61;;;10.16;53.45
48156;BME280;35568;48.104;11.782;2023-04-19T02:38:31;95689.88;;;9.85;53.78
48156;BME280;35568;48.104;11.782;2023-04-19T02:40:58;95690.44;;;10.03;53.93
48156;BME280;35568;48.104;11.782;2023-04-19T02:43:25;95689.16;;;10.15;53.70
48156;BME280;35568;48.104;11.782;2023-04-19T02:45:52;95685.81;;;10.03;53.45
48156;BME280;35568;48.104;11.782;2023-04-19T02:48:19;95681.37;;;9.78;53.37
48156;BME280;35568;48.104;11.782;2023-04-19T02:50:46;95680.62;;;10.04;53.59
48156;BME280;35568;48.104;11.782;2023-04-19T02:53:14;95683.22;;;10.14;53.48
48156;BME280;35568;48.104;11.782;2023-04-19T02:55:41;95682.84;;;10.24;52.98
48156;BME280;35568;48.104;11.782;2023-04-19T02:58:08;95680.63;;;9.88;53.51
48156;BME280;35568;48.104;11.782;2023-04-19T03:03:00;95670.12;;;10.51;52.46
48156;BME280;35568;48.104;11.782;2023-04-19T03:05:27;95669.26;;;10.26;52.98
48156;BME280;35568;48.104;11.782;2023-04-19T03:07:54;95670.95;;;10.03;52.77
48156;BME280;35568;48.104;11.782;2023-04-19T03:10:21;95671.62;;;10.21;53.19
48156;BME280;35568;48.104;11.782;2023-04-19T03:12:48;95670.74;;;10.04;53.70
48156;BME280;35568;48.104;11.782;2023-04-19T03:15:14;95669.70;;;10.03;53.90
48156;BME280;35568;48.104;11.782;2023-04-19T03:17:41;95668.80;;;9.88;53.84
48156;BME280;35568;48.104;11.782;2023-04-19T03:20:08;95663.24;;;9.84;53.82
48156;BME280;35568;48.104;11.782;2023-04-19T03:22:35;95663.03;;;9.56;54.56
48156;BME280;35568;48.104;11.782;2023-04-19T03:25:03;95660.80;;;9.74;54.28
48156;BME280;35568;48.104;11.782;2023-04-19T03:27:30;95654.61;;;10.26;54.23
48156;BME280;35568;48.104;11.782;2023-04-19T03:29:56;95654.60;;;10.03;54.02
48156;BME280;35568;48.104;11.782;2023-04-19T03:32:24;95653.34;;;9.91;54.18
48156;BME280;35568;48.104;11.782;2023-04-19T03:34:51;95652.97;;;9.78;54.16
48156;BME280;35568;48.104;11.782;2023-04-19T03:37:18;95651.92;;;9.97;54.38
48156;BME280;35568;48.104;11.782;2023-04-19T03:39:45;95648.43;;;10.00;54.28
48156;BME280;35568;48.104;11.782;2023-04-19T03:42:11;95648.48;;;9.99;54.09
48156;BME280;35568;48.104;11.782;2023-04-19T03:44:38;95644.06;;;10.23;53.82
48156;BME280;35568;48.104;11.782;2023-04-19T03:47:05;95645.47;;;10.44;53.74
48156;BME280;35568;48.104;11.782;2023-04-19T03:49:32;95643.62;;;10.42;53.29
48156;BME280;35568;48.104;11.782;2023-04-19T03:51:59;95643.73;;;10.55;53.03
48156;BME280;35568;48.104;11.782;2023-04-19T03:54:26;95641.71;;;10.40;52.96
48156;BME280;35568;48.104;11.782;2023-04-19T03:56:53;95639.77;;;10.24;53.25
48156;BME280;35568;48.104;11.782;2023-04-19T03:59:19;95640.81;;;10.14;53.37
48156;BME280;35568;48.104;11.782;2023-04-19T04:01:47;95638.55;;;10.27;53.24
48156;BME280;35568;48.104;11.782;2023-04-19T04:04:14;95638.79;;;10.19;53.42
48156;BME280;35568;48.104;11.782;2023-04-19T04:06:41;95643.27;;;10.33;53.75
48156;BME280;35568;48.104;11.782;2023-04-19T04:09:08;95642.94;;;9.90;53.79
48156;BME280;35568;48.104;11.782;2023-04-19T04:11:34;95640.86;;;10.34;53.35
48156;BME280;35568;48.104;11.782;2023-04-19T04:14:03;95641.87;;;10.45;53.48
48156;BME280;35568;48.104;11.782;2023-04-19T04:16:30;95641.32;;;10.32;53.14
48156;BME280;35568;48.104;11.782;2023-04-19T04:18:57;95638.52;;;10.27;53.39
48156;BME280;35568;48.104;11.782;2023-04-19T04:21:23;95642.95;;;9.82;53.58
48156;BME280;35568;48.104;11.782;2023-04-19T04:23:51;95645.21;;;10.08;53.57
48156;BME280;35568;48.104;11.782;2023-04-19T04:26:18;95646.07;;;10.25;54.18
48156;BME280;35568;48.104;11.782;2023-04-19T04:28:45;95645.00;;;9.66;54.37
48156;BME280;35568;48.104;11.782;2023-04-19T04:31:12;95646.90;;;9.60;54.96
48156;BME280;35568;48.104;11.782;2023-04-19T04:33:39;95650.09;;;9.42;55.30
48156;BME280;35568;48.104;11.782;2023-04-19T04:36:07;95651.54;;;9.37;54.93
48156;BME280;35568;48.104;11.782;2023-04-19T04:38:34;95654.76;;;9.21;55.30
48156;BME280;35568;48.104;11.782;2023-04-19T04:41:00;95648.76;;;9.80;55.69
48156;BME280;35568;48.104;11.782;2023-04-19T04:43:27;95646.69;;;9.94;54.81
48156;BME280;35568;48.104;11.782;2023-04-19T04:45:54;95645.12;;;9.89;54.41
48156;BME280;35568;48.104;11.782;2023-04-19T04:48:21;95646.14;;;9.66;55.01
48156;BME280;35568;48.104;11.782;2023-04-19T04:50:48;95643.11;;;9.46;55.16
48156;BME280;35568;48.104;11.782;2023-04-19T04:53:16;95642.43;;;9.62;55.50
48156;BME280;35568;48.104;11.782;2023-04-19T04:55:43;95641.26;;;9.52;54.75
48156;BME280;35568;48.104;11.782;2023-04-19T04:58:09;95641.11;;;9.37;55.02
48156;BME280;35568;48.104;11.782;2023-04-19T05:00:36;95640.96;;;9.87;54.79
48156;BME280;35568;48.104;11.782;2023-04-19T05:03:03;95638.39;;;9.63;54.57
48156;BME280;35568;48.104;11.782;2023-04-19T05:05:30;95636.01;;;9.81;54.49
48156;BME280;35568;48.104;11.782;2023-04-19T05:07:58;95637.06;;;9.90;54.37
48156;BME280;35568;48.104;11.782;2023-04-19T05:10:25;95632.04;;;10.11;53.74
48156;BME280;35568;48.104;11.782;2023-04-19T05:12:51;95633.37;;;10.15;53.72
48156;BME280;35568;48.104;11.782;2023-04-19T05:15:18;95634.89;;;10.24;53.91
48156;BME280;35568;48.104;11.782;2023-04-19T05:17:45;95635.70;;;10.30;53.09
48156;BME280;35568;48.104;11.782;2023-04-19T05:20:12;95633.29;;;10.27;52.90
48156;BME280;35568;48.104;11.782;2023-04-19T05:22:39;95636.38;;;10.02;53.58
48156;BME280;35568;48.104;11.782;2023-04-19T05:25:08;95634.97;;;9.26;53.29
48156;BME280;35568;48.104;11.782;2023-04-19T05:27:35;95630.86;;;10.59;52.58
48156;BME280;35568;48.104;11.782;2023-04-19T05:30:02;95633.22;;;10.41;52.74
48156;BME280;35568;48.104;11.782;2023-04-19T05:32:29;95631.28;;;10.17;53.14
48156;BME280;35568;48.104;11.782;2023-04-19T05:34:56;95630.47;;;10.28;53.26
48156;BME280;35568;48.104;11.782;2023-04-19T05:37:23;95629.24;;;10.08;53.13
48156;BME280;35568;48.104;11.782;2023-04-19T05:39:51;95630.80;;;10.31;53.28
48156;BME280;35568;48.104;11.782;2023-04-19T05:42:18;95630.00;;;10.24;53.52
48156;BME280;35568;48.104;11.782;2023-04-19T05:44:45;95635.21;;;9.96;53.18
48156;BME280;35568;48.104;11.782;2023-04-19T05:47:12;95633.16;;;9.84;53.61
48156;BME280;35568;48.104;11.782;2023-04-19T05:49:39;95634.88;;;9.65;53.95
48156;BME280;35568;48.104;11.782;2023-04-19T05:52:05;95632.65;;;9.71;54.35
48156;BME280;35568;48.104;11.782;2023-04-19T05:54:32;95630.92;;;9.79;54.45
48156;BME280;35568;48.104;11.782;2023-04-19T05:56:59;95631.91;;;9.86;53.52
48156;BME280;35568;48.104;11.782;2023-04-19T05:59:27;95626.71;;;10.02;53.16
48156;BME280;35568;48.104;11.782;2023-04-19T06:01:54;95630.05;;;10.05;53.02
48156;BME280;35568;48.104;11.782;2023-04-19T06:04:21;95632.83;;;9.96;53.39
48156;BME280;35568;48.104;11.782;2023-04-19T06:06:48;95632.01;;;9.38;53.67
48156;BME280;35568;48.104;11.782;2023-04-19T06:09:15;95632.55;;;10.08;53.50
48156;BME280;35568;48.104;11.782;2023-04-19T06:11:43;95635.72;;;9.70;53.83
48156;BME280;35568;48.104;11.782;2023-04-19T06:14:10;95633.86;;;9.71;53.86
48156;BME280;35568;48.104;11.782;2023-04-19T06:16:37;95635.27;;;9.44;53.75
48156;BME280;35568;48.104;11.782;2023-04-19T06:19:05;95632.51;;;9.82;53.70
48156;BME280;35568;48.104;11.782;2023-04-19T06:21:32;95634.40;;;9.60;53.60
48156;BME280;35568;48.104;11.782;2023-04-19T06:23:59;95629.92;;;9.56;53.24
48156;BME280;35568;48.104;11.782;2023-04-19T06:26:27;95627.25;;;9.47;53.55
48156;BME280;35568;48.104;11.782;2023-04-19T06:28:54;95629.75;;;9.56;53.50
48156;BME280;35568;48.104;11.782;2023-04-19T06:31:21;95631.07;;;9.75;53.36
48156;BME280;35568;48.104;11.782;2023-04-19T06:33:48;95634.78;;;9.70;53.27
48156;BME280;35568;48.104;11.782;2023-04-19T06:36:14;95632.00;;;10.04;53.64
48156;BME280;35568;48.104;11.782;2023-04-19T06:38:42;95631.17;;;9.62;53.31
48156;BME280;35568;48.104;11.782;2023-04-19T06:41:09;95630.13;;;9.84;53.32
48156;BME280;35568;48.104;11.782;2023-04-19T06:43:36;95631.80;;;9.91;53.24
48156;BME280;35568;48.104;11.782;2023-04-19T06:46:03;95629.02;;;9.69;53.42
48156;BME280;35568;48.104;11.782;2023-04-19T06:48:30;95623.81;;;9.73;53.38
48156;BME280;35568;48.104;11.782;2023-04-19T06:50:57;95622.54;;;9.38;53.64
48156;BME280;35568;48.104;11.782;2023-04-19T06:53:24;95620.75;;;9.35;53.84
48156;BME280;35568;48.104;11.782;2023-04-19T06:55:56;95626.51;;;9.46;53.81
48156;BME280;35568;48.104;11.782;2023-04-19T06:58:23;95621.45;;;9.51;53.76
48156;BME280;35568;48.104;11.782;2023-04-19T07:00:50;95617.80;;;9.28;53.97
48156;BME280;35568;48.104;11.782;2023-04-19T07:03:16;95617.76;;;9.71;54.00
48156;BME280;35568;48.104;11.782;2023-04-19T07:05:43;95615.25;;;9.38;53.64
48156;BME280;35568;48.104;11.782;2023-04-19T07:08:10;95614.40;;;9.57;54.00
48156;BME280;35568;48.104;11.782;2023-04-19T07:10:42;95615.65;;;9.69;53.72
48156;BME280;35568;48.104;11.782;2023-04-19T07:13:10;95618.43;;;9.47;53.60
48156;BME280;35568;48.104;11.782;2023-04-19T07:15:37;95622.14;;;9.12;54.43
48156;BME280;35568;48.104;11.782;2023-04-19T07:18:04;95619.94;;;9.30;54.17
48156;BME280;35568;48.104;11.782;2023-04-19T07:20:32;95620.74;;;9.32;54.29
48156;BME280;35568;48.104;11.782;2023-04-19T07:23:00;95616.40;;;9.26;54.24
48156;BME280;35568;48.104;11.782;2023-04-19T07:25:27;95614.00;;;9.49;54.65
48156;BME280;35568;48.104;11.782;2023-04-19T07:27:54;95610.56;;;9.53;54.04
48156;BME280;35568;48.104;11.782;2023-04-19T07:30:21;95609.45;;;9.44;54.01
48156;BME280;35568;48.104;11.782;2023-04-19T07:32:48;95607.73;;;9.42;54.39
48156;BME280;35568;48.104;11.782;2023-04-19T07:35:15;95605.50;;;9.34;54.15
48156;BME280;35568;48.104;11.782;2023-04-19T07:37:42;95605.09;;;9.28;53.94
48156;BME280;35568;48.104;11.782;2023-04-19T07:40:10;95607.58;;;9.30;53.85
48156;BME280;35568;48.104;11.782;2023-04-19T07:42:37;95607.25;;;9.43;54.09
48156;BME280;35568;48.104;11.782;2023-04-19T07:45:05;95607.31;;;9.26;54.47
48156;BME280;35568;48.104;11.782;2023-04-19T07:47:32;95601.06;;;9.25;54.85
48156;BME280;35568;48.104;11.782;2023-04-19T07:49:59;95598.35;;;9.61;54.65
48156;BME280;35568;48.104;11.782;2023-04-19T07:52:26;95598.68;;;9.79;54.35
48156;BME280;35568;48.104;11.782;2023-04-19T07:54:53;95594.64;;;9.77;52.74
48156;BME280;35568;48.104;11.782;2023-04-19T07:57:20;95594.02;;;10.13;52.78
48156;BME280;35568;48.104;11.782;2023-04-19T07:59:47;95590.88;;;10.59;52.55
48156;BME280;35568;48.104;11.782;2023-04-19T08:02:14;95591.32;;;11.03;51.96
48156;BME280;35568;48.104;11.782;2023-04-19T08:04:41;95590.33;;;11.01;51.13
48156;BME280;35568;48.104;11.782;2023-04-19T08:07:10;95588.45;;;11.61;50.49
48156;BME280;35568;48.104;11.782;2023-04-19T08:09:37;95586.47;;;12.11;49.25
48156;BME280;35568;48.104;11.782;2023-04-19T08:12:04;95588.93;;;12.59;47.89
48156;BME280;35568;48.104;11.782;2023-04-19T08:14:31;95588.50;;;12.77;47.34
48156;BME280;35568;48.104;11.782;2023-04-19T08:16:58;95587.96;;;12.29;47.84
48156;BME280;35568;48.104;11.782;2023-04-19T08:19:25;95584.27;;;12.57;47.36
48156;BME280;35568;48.104;11.782;2023-04-19T08:21:52;95580.59;;;13.16;46.87
48156;BME280;35568;48.104;11.782;2023-04-19T08:24:19;95579.81;;;12.73;47.33
48156;BME280;35568;48.104;11.782;2023-04-19T08:26:46;95577.46;;;13.14;46.23
48156;BME280;35568;48.104;11.782;2023-04-19T08:29:13;95578.22;;;13.59;45.64
48156;BME280;35568;48.104;11.782;2023-04-19T08:31:43;95569.95;;;14.62;43.71
48156;BME280;35568;48.104;11.782;2023-04-19T08:34:10;95569.87;;;14.85;42.95
48156;BME280;35568;48.104;11.782;2023-04-19T08:36:37;95567.50;;;14.71;43.03
48156;BME280;35568;48.104;11.782;2023-04-19T08:39:04;95565.80;;;14.64;43.48
48156;BME280;35568;48.104;11.782;2023-04-19T08:41:30;95567.46;;;13.50;43.89
48156;BME280;35568;48.104;11.782;2023-04-19T08:43:57;95566.21;;;13.03;43.79
48156;BME280;35568;48.104;11.782;2023-04-19T08:46:25;95565.03;;;13.51;43.41
48156;BME280;35568;48.104;11.782;2023-04-19T08:48:53;95565.56;;;13.68;43.28
48156;BME280;35568;48.104;11.782;2023-04-19T08:51:21;95565.46;;;13.95;42.76
48156;BME280;35568;48.104;11.782;2023-04-19T08:53:48;95565.30;;;13.49;43.04
48156;BME280;35568;48.104;11.782;2023-04-19T08:56:15;95563.17;;;13.61;43.25
48156;BME280;35568;48.104;11.782;2023-04-19T08:58:43;95561.09;;;13.82;42.55
48156;BME280;35568;48.104;11.782;2023-04-19T09:01:10;95558.41;;;13.28;43.17
48156;BME280;35568;48.104;11.782;2023-04-19T09:03:42;95555.00;;;12.95;44.31
48156;BME280;35568;48.104;11.782;2023-04-19T09:06:09;95553.05;;;12.66;45.27
48156;BME280;35568;48.104;11.782;2023-04-19T09:08:37;95549.84;;;12.49;45.76
48156;BME280;35568;48.104;11.782;2023-04-19T09:11:05;95547.09;;;12.70;45.67
48156;BME280;35568;48.104;11.782;2023-04-19T09:13:32;95545.23;;;12.48;45.64
48156;BME280;35568;48.104;11.782;2023-04-19T09:15:59;95545.63;;;12.25;46.49
48156;BME280;35568;48.104;11.782;2023-04-19T09:18:26;95544.60;;;12.35;46.49
48156;BME280;35568;48.104;11.782;2023-04-19T09:20:53;95541.46;;;12.27;46.72
48156;BME280;35568;48.104;11.782;2023-04-19T09:23:20;95539.08;;;12.08;46.80
48156;BME280;35568;48.104;11.782;2023-04-19T09:25:52;95536.52;;;12.17;47.12
48156;BME280;35568;48.104;11.782;2023-04-19T09:28:19;95534.16;;;12.40;46.51
48156;BME280;35568;48.104;11.782;2023-04-19T09:30:47;95532.42;;;12.71;46.79
48156;BME280;35568;48.104;11.782;2023-04-19T09:33:30;95530.03;;;12.61;45.40
48156;BME280;35568;48.104;11.782;2023-04-19T09:35:58;95528.41;;;12.43;45.84
48156;BME280;35568;48.104;11.782;2023-04-19T09:38:25;95526.35;;;12.52;46.21
48156;BME280;35568;48.104;11.782;2023-04-19T09:41:04;95523.81;;;12.44;45.99
48156;BME280;35568;48.104;11.782;2023-04-19T09:43:32;95522.14;;;12.46;46.46
48156;BME280;35568;48.104;11.782;2023-04-19T09:46:00;95519.10;;;12.74;45.68
48156;BME280;35568;48.104;11.782;2023-04-19T09:48:26;95516.10;;;12.61;46.47
48156;BME280;35568;48.104;11.782;2023-04-19T09:50:55;95513.13;;;12.35;46.36
48156;BME280;35568;48.104;11.782;2023-04-19T09:53:25;95508.67;;;12.83;46.25
48156;BME280;35568;48.104;11.782;2023-04-19T09:55:53;95505.61;;;13.17;45.46
48156;BME280;35568;48.104;11.782;2023-04-19T09:58:21;95497.77;;;13.43;44.48
48156;BME280;35568;48.104;11.782;2023-04-19T10:00:48;95495.37;;;13.27;44.22
48156;BME280;35568;48.104;11.782;2023-04-19T10:03:16;95491.40;;;13.89;43.56
48156;BME280;35568;48.104;11.782;2023-04-19T10:05:44;95487.73;;;14.22;42.90
48156;BME280;35568;48.104;11.782;2023-04-19T10:08:16;95483.07;;;14.57;41.49
48156;BME280;35568;48.104;11.782;2023-04-19T10:10:44;95481.23;;;15.09;40.82
48156;BME280;35568;48.104;11.782;2023-04-19T10:13:12;95479.47;;;15.40;40.15
48156;BME280;35568;48.104;11.782;2023-04-19T10:15:44;95473.62;;;15.71;40.21
48156;BME280;35568;48.104;11.782;2023-04-19T10:18:11;95470.95;;;15.51;39.21
48156;BME280;35568;48.104;11.782;2023-04-19T10:20:45;95470.43;;;15.97;39.00
48156;BME280;35568;48.104;11.782;2023-04-19T10:23:13;95465.56;;;16.45;38.00
48156;BME280;35568;48.104;11.782;2023-04-19T10:25:44;95462.49;;;16.46;38.94
48156;BME280;35568;48.104;11.782;2023-04-19T10:28:12;95463.54;;;15.94;38.72
48156;BME280;35568;48.104;11.782;2023-04-19T10:30:52;95461.12;;;14.97;39.30
48156;BME280;35568;48.104;11.782;2023-04-19T10:33:24;95460.23;;;14.69;40.59
48156;BME280;35568;48.104;11.782;2023-04-19T10:35:55;95456.54;;;14.26;41.48
48156;BME280;35568;48.104;11.782;2023-04-19T10:38:35;95456.83;;;13.92;42.54
48156;BME280;35568;48.104;11.782;2023-04-19T10:41:03;95457.64;;;13.31;43.45
48156;BME280;35568;48.104;11.782;2023-04-19T10:43:31;95452.46;;;13.30;45.84
48156;BME280;35568;48.104;11.782;2023-04-19T10:45:59;95455.38;;;12.82;45.47
48156;BME280;35568;48.104;11.782;2023-04-19T10:48:35;95455.57;;;12.55;46.57
48156;BME280;35568;48.104;11.782;2023-04-19T10:51:04;95451.15;;;12.19;47.26
48156;BME280;35568;48.104;11.782;2023-04-19T10:53:50;95445.94;;;11.84;48.25
48156;BME280;35568;48.104;11.782;2023-04-19T10:56:19;95444.14;;;11.74;48.90
48156;BME280;35568;48.104;11.782;2023-04-19T10:59:18;95441.48;;;11.45;48.78
48156;BME280;35568;48.104;11.782;2023-04-19T11:01:48;95439.71;;;11.24;49.81
48156;BME280;35568;48.104;11.782;2023-04-19T11:04:16;95435.43;;;11.22;50.78
48156;BME280;35568;48.104;11.782;2023-04-19T11:07:02;95433.63;;;11.20;50.46
48156;BME280;35568;48.104;11.782;2023-04-19T11:09:30;95431.58;;;11.07;50.69
48156;BME280;35568;48.104;11.782;2023-04-19T11:11:59;95430.61;;;11.20;50.84
48156;BME280;35568;48.104;11.782;2023-04-19T11:14:29;95426.35;;;11.74;50.04
48156;BME280;35568;48.104;11.782;2023-04-19T11:16:58;95424.51;;;11.55;50.24
48156;BME280;35568;48.104;11.782;2023-04-19T11:19:25;95422.17;;;11.13;50.22
48156;BME280;35568;48.104;11.782;2023-04-19T11:21:57;95415.80;;;11.09;51.04
48156;BME280;35568;48.104;11.782;2023-04-19T11:24:24;95415.04;;;10.85;50.93
48156;BME280;35568;48.104;11.782;2023-04-19T11:26:51;95413.52;;;10.67;51.40
48156;BME280;35568;48.104;11.782;2023-04-19T11:29:19;95411.84;;;10.40;51.76
48156;BME280;35568;48.104;11.782;2023-04-19T11:31:46;95410.64;;;10.31;50.54
48156;BME280;35568;48.104;11.782;2023-04-19T11:34:13;95407.14;;;10.17;51.49
48156;BME280;35568;48.104;11.782;2023-04-19T11:36:49;95405.21;;;10.54;52.44
48156;BME280;35568;48.104;11.782;2023-04-19T11:39:16;95403.99;;;10.47;52.32
48156;BME280;35568;48.104;11.782;2023-04-19T11:41:43;95404.37;;;10.21;52.58
48156;BME280;35568;48.104;11.782;2023-04-19T11:44:14;95405.97;;;10.19;53.59
48156;BME280;35568;48.104;11.782;2023-04-19T11:46:42;95406.52;;;9.65;53.64
48156;BME280;35568;48.104;11.782;2023-04-19T11:49:09;95406.18;;;9.65;53.56
48156;BME280;35568;48.104;11.782;2023-04-19T11:51:41;95404.42;;;9.69;53.10
48156;BME280;35568;48.104;11.782;2023-04-19T11:54:15;95403.98;;;9.86;52.49
48156;BME280;35568;48.104;11.782;2023-04-19T11:56:59;95402.55;;;9.96;53.86
48156;BME280;35568;48.104;11.782;2023-04-19T11:59:27;95401.05;;;9.87;54.71
48156;BME280;35568;48.104;11.782;2023-04-19T12:01:55;95405.60;;;9.88;54.18
48156;BME280;35568;48.104;11.782;2023-04-19T12:04:22;95403.43;;;9.95;54.34
48156;BME280;35568;48.104;11.782;2023-04-19T12:06:58;95400.78;;;10.52;53.97
48156;BME280;35568;48.104;11.782;2023-04-19T12:09:26;95398.39;;;10.07;53.73
48156;BME280;35568;48.104;11.782;2023-04-19T12:11:53;95396.76;;;10.06;54.58
48156;BME280;35568;48.104;11.782;2023-04-19T12:14:21;95398.12;;;10.19;54.68
48156;BME280;35568;48.104;11.782;2023-04-19T12:17:06;95400.27;;;9.83;55.60
48156;BME280;35568;48.104;11.782;2023-04-19T12:19:35;95397.42;;;9.69;54.60
48156;BME280;35568;48.104;11.782;2023-04-19T12:22:12;95398.47;;;9.43;54.24
48156;BME280;35568;48.104;11.782;2023-04-19T12:24:40;95401.13;;;9.46;54.76
48156;BME280;35568;48.104;11.782;2023-04-19T12:27:08;95400.26;;;9.45;55.49
48156;BME280;35568;48.104;11.782;2023-04-19T12:29:35;95400.38;;;9.20;55.45
48156;BME280;35568;48.104;11.782;2023-04-19T12:32:03;95397.10;;;9.31;55.70
48156;BME280;35568;48.104;11.782;2023-04-19T12:34:31;95395.48;;;9.24;55.95
48156;BME280;35568;48.104;11.782;2023-04-19T12:36:58;95398.04;;;9.51;55.68
48156;BME280;35568;48.104;11.782;2023-04-19T12:39:25;95398.11;;;9.58;55.72
48156;BME280;35568;48.104;11.782;2023-04-19T12:41:52;95392.35;;;9.64;55.50
48156;BME280;35568;48.104;11.782;2023-04-19T12:44:20;95390.51;;;9.81;55.36
48156;BME280;35568;48.104;11.782;2023-04-19T12:46:46;95391.30;;;9.83;54.10
48156;BME280;35568;48.104;11.782;2023-04-19T12:49:17;95390.10;;;9.92;54.96
48156;BME280;35568;48.104;11.782;2023-04-19T12:51:44;95384.45;;;10.00;55.17
48156;BME280;35568;48.104;11.782;2023-04-19T12:54:11;95383.51;;;10.02;55.06
48156;BME280;35568;48.104;11.782;2023-04-19T12:56:38;95381.51;;;10.36;54.38
48156;BME280;35568;48.104;11.782;2023-04-19T12:59:05;95382.89;;;10.40;53.75